createdAt,value
2023-01-07T00:01:07.832Z,101209.28
2023-01-07T00:03:35.024Z,101211.78
2023-01-07T00:06:02.450Z,101208.31
2023-01-07T00:08:30.831Z,101203.88
2023-01-07T00:11:00.679Z,101206.25
2023-01-07T00:13:28.434Z,101205.19
2023-01-07T00:16:03.763Z,101198.97
2023-01-07T00:18:30.528Z,101198.00
2023-01-07T00:20:58.340Z,101190.84
2023-01-07T00:23:25.526Z,101188.91
2023-01-07T00:25:52.591Z,101187.84
2023-01-07T00:28:19.103Z,101179.94
2023-01-07T00:30:45.553Z,101178.75
2023-01-07T00:33:14.442Z,101178.50
2023-01-07T00:35:41.329Z,101182.50
2023-01-07T00:38:07.837Z,101184.06
2023-01-07T00:40:34.305Z,101176.94
2023-01-07T00:43:07.062Z,101181.94
2023-01-07T00:45:35.710Z,101178.19
2023-01-07T00:48:03.793Z,101174.63
2023-01-07T00:50:32.827Z,101179.69
2023-01-07T00:52:59.434Z,101180.47
2023-01-07T00:55:26.415Z,101177.72
2023-01-07T00:57:53.726Z,101181.00
2023-01-07T01:00:21.675Z,101176.66
2023-01-07T01:02:48.788Z,101170.53
2023-01-07T01:05:15.748Z,101163.47
2023-01-07T01:07:42.405Z,101159.91
2023-01-07T01:10:12.319Z,101165.78
2023-01-07T01:12:39.179Z,101178.66
2023-01-07T01:15:08.424Z,101182.91
2023-01-07T01:17:34.904Z,101179.47
2023-01-07T01:20:01.603Z,101169.25
2023-01-07T01:22:28.486Z,101180.44
2023-01-07T01:24:54.948Z,101175.28
2023-01-07T01:27:21.428Z,101168.53
2023-01-07T01:29:47.872Z,101165.97
2023-01-07T01:32:14.412Z,101166.03
2023-01-07T01:34:40.872Z,101171.28
2023-01-07T01:37:07.408Z,101173.09
2023-01-07T01:39:33.920Z,101169.72
2023-01-07T01:42:00.460Z,101167.22
2023-01-07T01:44:36.964Z,101162.34
2023-01-07T01:47:13.502Z,101159.94
2023-01-07T01:49:42.690Z,101152.50
2023-01-07T01:52:15.759Z,101155.34
2023-01-07T01:54:47.513Z,101144.50
2023-01-07T01:57:16.897Z,101147.56
2023-01-07T01:59:45.586Z,101138.38
2023-01-07T02:02:12.883Z,101134.41
2023-01-07T02:04:39.453Z,101131.38
2023-01-07T02:07:10.610Z,101136.91
2023-01-07T02:09:37.126Z,101138.84
2023-01-07T02:12:14.554Z,101129.69
2023-01-07T02:15:15.226Z,101134.22
2023-01-07T02:18:09.563Z,101136.25
2023-01-07T02:20:55.279Z,101127.88
2023-01-07T02:23:36.942Z,101132.44
2023-01-07T02:26:09.434Z,101139.63
2023-01-07T02:28:47.324Z,101139.00
2023-01-07T02:31:44.031Z,101141.03
2023-01-07T02:34:25.048Z,101141.28
2023-01-07T02:37:03.450Z,101141.47
2023-01-07T02:40:06.580Z,101141.81
2023-01-07T02:42:41.132Z,101142.88
2023-01-07T02:45:27.083Z,101133.59
2023-01-07T02:47:57.168Z,101125.94
2023-01-07T02:50:23.681Z,101123.53
2023-01-07T02:52:50.124Z,101120.22
2023-01-07T02:55:32.639Z,101122.00
2023-01-07T02:58:34.501Z,101126.53
2023-01-07T03:01:13.503Z,101117.16
2023-01-07T03:04:03.645Z,101117.41
2023-01-07T03:06:54.539Z,101119.31
2023-01-07T03:09:50.705Z,101123.03
2023-01-07T03:12:42.179Z,101121.63
2023-01-07T03:15:17.012Z,101108.03
2023-01-07T03:17:54.161Z,101105.78
2023-01-07T03:20:22.701Z,101093.94
2023-01-07T03:22:49.651Z,101101.25
2023-01-07T03:25:17.624Z,101090.28
2023-01-07T03:27:47.073Z,101085.44
2023-01-07T03:30:15.947Z,101086.63
2023-01-07T03:32:46.032Z,101092.00
2023-01-07T03:35:13.173Z,101088.66
2023-01-07T03:37:41.843Z,101087.19
2023-01-07T03:40:10.779Z,101096.00
2023-01-07T03:42:39.917Z,101093.50
2023-01-07T03:45:25.766Z,101088.34
2023-01-07T03:47:53.690Z,101083.16
2023-01-07T03:50:20.569Z,101086.72
2023-01-07T03:52:48.629Z,101088.34
2023-01-07T03:55:15.259Z,101086.53
2023-01-07T03:57:41.710Z,101076.03
2023-01-07T04:00:10.069Z,101081.22
2023-01-07T04:02:36.679Z,101078.47
2023-01-07T04:05:03.410Z,101064.59
2023-01-07T04:07:29.874Z,101066.22
2023-01-07T04:09:56.364Z,101067.03
2023-01-07T04:12:22.847Z,101055.72
2023-01-07T04:14:49.341Z,101063.38
2023-01-07T04:17:15.816Z,101071.06
2023-01-07T04:19:42.309Z,101067.44
2023-01-07T04:22:12.071Z,101063.88
2023-01-07T04:24:38.548Z,101067.28
2023-01-07T04:27:05.082Z,101057.59
2023-01-07T04:29:31.576Z,101065.25
2023-01-07T04:31:58.096Z,101069.38
2023-01-07T04:34:24.747Z,101069.16
2023-01-07T04:36:51.498Z,101069.78
2023-01-07T04:39:18.292Z,101062.59
2023-01-07T04:41:44.924Z,101056.31
2023-01-07T04:44:11.688Z,101061.31
2023-01-07T04:46:38.253Z,101059.38
2023-01-07T04:49:04.793Z,101065.25
2023-01-07T04:51:31.344Z,101057.28
2023-01-07T04:53:58.414Z,101059.59
2023-01-07T04:56:24.925Z,101053.28
2023-01-07T04:58:51.421Z,101055.63
2023-01-07T05:01:18.191Z,101058.91
2023-01-07T05:03:44.688Z,101049.22
2023-01-07T05:06:11.389Z,101045.50
2023-01-07T05:08:37.933Z,101053.09
2023-01-07T05:11:05.222Z,101046.78
2023-01-07T05:13:32.054Z,101053.53
2023-01-07T05:15:58.583Z,101054.28
2023-01-07T05:18:25.029Z,101057.50
2023-01-07T05:20:51.490Z,101052.16
2023-01-07T05:23:17.966Z,101046.81
2023-01-07T05:25:44.425Z,101044.16
2023-01-07T05:28:12.064Z,101043.44
2023-01-07T05:30:39.590Z,101044.31
2023-01-07T05:33:07.335Z,101037.53
2023-01-07T05:35:35.031Z,101041.91
2023-01-07T05:38:01.544Z,101042.72
2023-01-07T05:40:28.127Z,101038.44
2023-01-07T05:42:54.644Z,101038.34
2023-01-07T05:45:21.877Z,101034.81
2023-01-07T05:47:48.697Z,101037.38
2023-01-07T05:50:15.182Z,101038.19
2023-01-07T05:52:41.649Z,101033.84
2023-01-07T05:55:08.648Z,101037.38
2023-01-07T05:57:35.139Z,101047.88
2023-01-07T06:00:01.624Z,101037.53
2023-01-07T06:02:28.112Z,101040.25
2023-01-07T06:04:54.624Z,101047.06
2023-01-07T06:07:21.105Z,101046.09
2023-01-07T06:09:47.681Z,101044.31
2023-01-07T06:12:14.149Z,101040.78
2023-01-07T06:14:40.613Z,101039.00
2023-01-07T06:17:07.092Z,101033.69
2023-01-07T06:19:33.606Z,101036.97
2023-01-07T06:22:00.110Z,101042.06
2023-01-07T06:24:26.783Z,101033.16
2023-01-07T06:26:53.267Z,101033.81
2023-01-07T06:29:19.790Z,101038.78
2023-01-07T06:31:46.260Z,101046.34
2023-01-07T06:34:12.759Z,101042.78
2023-01-07T06:36:39.216Z,101031.50
2023-01-07T06:39:05.703Z,101022.88
2023-01-07T06:41:32.163Z,101029.72
2023-01-07T06:43:58.626Z,101035.84
2023-01-07T06:46:25.313Z,101036.75
2023-01-07T06:48:51.808Z,101036.75
2023-01-07T06:51:18.288Z,101043.59
2023-01-07T06:53:44.909Z,101041.00
2023-01-07T06:56:11.420Z,101041.00
2023-01-07T06:58:37.894Z,101042.78
2023-01-07T07:01:08.407Z,101043.69
2023-01-07T07:03:35.071Z,101041.97
2023-01-07T07:06:01.559Z,101042.72
2023-01-07T07:08:28.290Z,101034.16
2023-01-07T07:10:54.769Z,101035.06
2023-01-07T07:13:21.228Z,101036.03
2023-01-07T07:15:48.859Z,101036.09
2023-01-07T07:18:16.438Z,101031.88
2023-01-07T07:20:42.891Z,101033.63
2023-01-07T07:23:09.347Z,101034.53
2023-01-07T07:25:35.841Z,101025.91
2023-01-07T07:28:02.280Z,101026.72
2023-01-07T07:30:45.941Z,101025.91
2023-01-07T07:33:15.277Z,101031.94
2023-01-07T07:35:42.208Z,101034.59
2023-01-07T07:38:08.661Z,101027.84
2023-01-07T07:40:35.175Z,101021.88
2023-01-07T07:43:11.082Z,101027.13
2023-01-07T07:45:40.493Z,101035.75
2023-01-07T07:48:07.999Z,101036.63
2023-01-07T07:50:35.329Z,101030.50
2023-01-07T07:53:01.883Z,101026.38
2023-01-07T07:55:28.457Z,101030.13
2023-01-07T07:57:55.917Z,101026.03
2023-01-07T08:00:22.984Z,101028.84
2023-01-07T08:02:49.428Z,101023.94
2023-01-07T08:05:16.107Z,101017.41
2023-01-07T08:07:42.683Z,101017.78
2023-01-07T08:10:09.374Z,101014.69
2023-01-07T08:12:39.346Z,101014.13
2023-01-07T08:15:07.243Z,101013.56
2023-01-07T08:17:34.300Z,101012.13
2023-01-07T08:20:00.768Z,101010.72
2023-01-07T08:22:27.280Z,101011.69
2023-01-07T08:24:53.781Z,101017.22
2023-01-07T08:27:20.326Z,101015.72
2023-01-07T08:29:47.089Z,101022.81
2023-01-07T08:32:13.615Z,101018.75
2023-01-07T08:34:40.104Z,101013.75
2023-01-07T08:37:06.572Z,101018.38
2023-01-07T08:39:33.046Z,101022.78
2023-01-07T08:41:59.514Z,101019.53
2023-01-07T08:44:25.995Z,101022.22
2023-01-07T08:46:53.339Z,101014.47
2023-01-07T08:49:19.882Z,101021.50
2023-01-07T08:51:46.340Z,101020.03
2023-01-07T08:54:12.833Z,101016.56
2023-01-07T08:56:39.285Z,101011.47
2023-01-07T08:59:05.846Z,101012.50
2023-01-07T09:01:32.430Z,101015.09
2023-01-07T09:03:59.072Z,101013.56
2023-01-07T09:06:25.703Z,101013.63
2023-01-07T09:08:52.187Z,101012.91
2023-01-07T09:11:18.665Z,101009.72
2023-01-07T09:13:45.155Z,101016.03
2023-01-07T09:16:11.725Z,101010.13
2023-01-07T09:18:38.260Z,101007.75
2023-01-07T09:21:04.885Z,101005.31
2023-01-07T09:23:31.381Z,101014.28
2023-01-07T09:25:57.908Z,101017.91
2023-01-07T09:28:24.413Z,101017.31
2023-01-07T09:30:50.882Z,101024.56
2023-01-07T09:33:17.337Z,101022.34
2023-01-07T09:35:43.802Z,101011.41
2023-01-07T09:38:10.419Z,101017.59
2023-01-07T09:40:40.058Z,101014.44
2023-01-07T09:43:14.348Z,101020.84
2023-01-07T09:45:43.311Z,101005.50
2023-01-07T09:48:19.361Z,100997.31
2023-01-07T09:51:08.093Z,101003.69
2023-01-07T09:53:38.462Z,100997.06
2023-01-07T09:56:12.500Z,100986.06
2023-01-07T09:58:42.446Z,100987.22
2023-01-07T10:01:24.246Z,100986.59
2023-01-07T10:04:12.856Z,100986.06
2023-01-07T10:06:45.197Z,100980.19
2023-01-07T10:09:36.438Z,100975.34
2023-01-07T10:12:17.120Z,100972.88
2023-01-07T10:14:56.879Z,100964.50
2023-01-07T10:17:49.701Z,100963.75
2023-01-07T10:20:25.373Z,100963.13
2023-01-07T10:23:04.936Z,100962.38
2023-01-07T10:25:35.965Z,100955.66
2023-01-07T10:28:09.792Z,100951.47
2023-01-07T10:30:41.816Z,100949.06
2023-01-07T10:33:21.083Z,100946.66
2023-01-07T10:35:49.273Z,100943.31
2023-01-07T10:38:19.393Z,100943.66
2023-01-07T10:40:53.423Z,100939.41
2023-01-07T10:43:35.175Z,100938.03
2023-01-07T10:46:12.317Z,100923.72
2023-01-07T10:49:16.533Z,100925.00
2023-01-07T10:52:04.216Z,100918.41
2023-01-07T10:54:49.402Z,100922.19
2023-01-07T10:57:21.500Z,100906.94
2023-01-07T10:59:50.933Z,100908.19
2023-01-07T11:02:20.192Z,100902.34
2023-01-07T11:04:46.878Z,100899.22
2023-01-07T11:07:30.491Z,100894.25
2023-01-07T11:10:00.662Z,100892.66
2023-01-07T11:12:36.638Z,100889.44
2023-01-07T11:15:06.909Z,100882.78
2023-01-07T11:17:39.833Z,100878.66
2023-01-07T11:20:07.038Z,100871.69
2023-01-07T11:22:37.451Z,100864.06
2023-01-07T11:25:29.699Z,100860.84
2023-01-07T11:28:01.795Z,100859.31
2023-01-07T11:30:30.879Z,100863.00
2023-01-07T11:33:03.681Z,100863.19
2023-01-07T11:35:30.467Z,100860.75
2023-01-07T11:37:58.296Z,100856.53
2023-01-07T11:40:27.720Z,100862.59
2023-01-07T11:43:00.235Z,100863.59
2023-01-07T11:45:35.553Z,100858.53
2023-01-07T11:48:05.022Z,100860.28
2023-01-07T11:50:42.927Z,100846.47
2023-01-07T11:53:15.337Z,100852.53
2023-01-07T11:55:57.245Z,100846.56
2023-01-07T11:58:30.958Z,100847.44
2023-01-07T12:01:10.250Z,100841.31
2023-01-07T12:03:40.568Z,100838.78
2023-01-07T12:06:13.995Z,100832.78
2023-01-07T12:08:42.754Z,100837.88
2023-01-07T12:11:11.463Z,100838.63
2023-01-07T12:13:40.083Z,100818.72
2023-01-07T12:16:08.040Z,100828.19
2023-01-07T12:19:03.732Z,100823.03
2023-01-07T12:21:35.726Z,100817.06
2023-01-07T12:24:20.894Z,100817.06
2023-01-07T12:26:55.136Z,100809.31
2023-01-07T12:30:09.584Z,100809.31
2023-01-07T12:32:45.053Z,100804.91
2023-01-07T12:35:19.169Z,100802.31
2023-01-07T12:38:03.269Z,100797.94
2023-01-07T12:40:35.756Z,100787.59
2023-01-07T12:43:13.495Z,100786.75
2023-01-07T12:45:43.363Z,100783.28
2023-01-07T12:48:30.787Z,100790.09
2023-01-07T12:50:59.218Z,100779.00
2023-01-07T12:53:36.682Z,100770.38
2023-01-07T12:56:14.572Z,100766.94
2023-01-07T12:58:48.298Z,100770.28
2023-01-07T13:01:58.834Z,100760.03
2023-01-07T13:04:34.563Z,100752.19
2023-01-07T13:07:23.871Z,100753.88
2023-01-07T13:10:07.250Z,100749.59
2023-01-07T13:12:43.448Z,100747.84
2023-01-07T13:15:15.144Z,100748.66
2023-01-07T13:17:41.680Z,100741.72
2023-01-07T13:20:16.047Z,100745.97
2023-01-07T13:22:54.986Z,100743.34
2023-01-07T13:25:42.021Z,100740.75
2023-01-07T13:28:24.830Z,100744.09
2023-01-07T13:31:06.145Z,100736.25
2023-01-07T13:33:57.747Z,100733.69
2023-01-07T13:36:38.931Z,100734.63
2023-01-07T13:39:27.254Z,100724.09
2023-01-07T13:42:02.135Z,100720.66
2023-01-07T13:44:54.566Z,100724.13
2023-01-07T13:47:23.557Z,100733.59
2023-01-07T13:49:58.178Z,100721.34
2023-01-07T13:52:30.513Z,100721.41
2023-01-07T13:54:59.629Z,100713.53
2023-01-07T13:57:25.915Z,100716.06
2023-01-07T13:59:56.421Z,100710.88
2023-01-07T14:02:24.845Z,100710.88
2023-01-07T14:04:52.323Z,100703.00
2023-01-07T14:07:19.341Z,100716.69
2023-01-07T14:09:46.373Z,100706.28
2023-01-07T14:12:25.529Z,100706.25
2023-01-07T14:15:17.975Z,100707.97
2023-01-07T14:18:04.483Z,100705.03
2023-01-07T14:20:44.082Z,100718.84
2023-01-07T14:23:32.531Z,100717.06
2023-01-07T14:26:10.832Z,100720.38
2023-01-07T14:29:05.203Z,100722.94
2023-01-07T14:31:31.784Z,100716.84
2023-01-07T14:34:07.069Z,100719.41
2023-01-07T14:37:04.805Z,100710.63
2023-01-07T14:39:35.108Z,100712.44
2023-01-07T14:42:16.731Z,100709.91
2023-01-07T14:44:43.178Z,100712.44
2023-01-07T14:47:13.940Z,100707.31
2023-01-07T14:50:02.396Z,100699.31
2023-01-07T14:52:39.303Z,100699.47
2023-01-07T14:55:26.422Z,100698.00
2023-01-07T14:58:12.521Z,100693.31
2023-01-07T15:01:07.943Z,100696.31
2023-01-07T15:03:52.494Z,100688.81
2023-01-07T15:06:25.750Z,100690.91
2023-01-07T15:09:21.358Z,100681.50
2023-01-07T15:12:07.909Z,100682.13
2023-01-07T15:15:04.048Z,100677.59
2023-01-07T15:17:30.987Z,100678.34
2023-01-07T15:19:58.088Z,100670.47
2023-01-07T15:22:49.532Z,100674.66
2023-01-07T15:25:44.112Z,100675.34
2023-01-07T15:28:22.338Z,100668.22
2023-01-07T15:30:54.733Z,100668.13
2023-01-07T15:33:53.409Z,100666.22
2023-01-07T15:36:20.063Z,100663.50
2023-01-07T15:38:50.725Z,100657.34
2023-01-07T15:41:26.405Z,100655.56
2023-01-07T15:43:53.232Z,100650.38
2023-01-07T15:46:20.068Z,100650.31
2023-01-07T15:49:03.772Z,100649.44
2023-01-07T15:51:38.269Z,100642.44
2023-01-07T15:54:09.355Z,100638.94
2023-01-07T15:56:36.154Z,100630.03
2023-01-07T15:59:07.339Z,100630.88
2023-01-07T16:01:34.269Z,100632.53
2023-01-07T16:04:00.799Z,100621.13
2023-01-07T16:06:27.534Z,100617.59
2023-01-07T16:08:54.032Z,100617.50
2023-01-07T16:11:25.826Z,100617.41
2023-01-07T16:14:00.675Z,100623.38
2023-01-07T16:16:28.757Z,100613.78
2023-01-07T16:19:00.601Z,100614.75
2023-01-07T16:21:35.255Z,100606.03
2023-01-07T16:24:01.745Z,100602.47
2023-01-07T16:27:06.425Z,100601.41
2023-01-07T16:29:36.945Z,100587.50
2023-01-07T16:32:06.655Z,100585.75
2023-01-07T16:34:32.947Z,100596.06
2023-01-07T16:37:00.301Z,100581.28
2023-01-07T16:39:32.251Z,100581.25
2023-01-07T16:42:17.233Z,100581.13
2023-01-07T16:44:44.313Z,100577.53
2023-01-07T16:47:19.058Z,100575.78
2023-01-07T16:49:45.732Z,100574.91
2023-01-07T16:52:14.228Z,100570.50
2023-01-07T16:54:44.634Z,100563.56
2023-01-07T16:57:10.948Z,100554.00
2023-01-07T16:59:45.744Z,100556.41
2023-01-07T17:02:28.720Z,100558.88
2023-01-07T17:05:23.268Z,100549.44
2023-01-07T17:07:52.595Z,100548.53
2023-01-07T17:10:25.958Z,100551.13
2023-01-07T17:12:58.810Z,100539.84
2023-01-07T17:15:31.427Z,100545.03
2023-01-07T17:18:13.021Z,100545.91
2023-01-07T17:20:53.945Z,100532.84
2023-01-07T17:23:26.289Z,100524.94
2023-01-07T17:26:07.654Z,100542.16
2023-01-07T17:28:36.590Z,100537.91
2023-01-07T17:31:03.254Z,100531.78
2023-01-07T17:33:30.049Z,100525.75
2023-01-07T17:35:57.585Z,100520.56
2023-01-07T17:38:24.023Z,100513.53
2023-01-07T17:40:50.513Z,100498.03
2023-01-07T17:43:34.169Z,100500.50
2023-01-07T17:46:01.274Z,100503.13
2023-01-07T17:48:28.080Z,100493.63
2023-01-07T17:50:57.022Z,100490.16
2023-01-07T17:53:25.893Z,100489.28
2023-01-07T17:55:52.542Z,100483.06
2023-01-07T17:58:36.238Z,100476.81
2023-01-07T18:01:06.504Z,100475.06
2023-01-07T18:03:33.166Z,100483.66
2023-01-07T18:05:59.589Z,100477.59
2023-01-07T18:08:27.050Z,100469.72
2023-01-07T18:11:13.146Z,100467.91
2023-01-07T18:13:40.225Z,100460.84
2023-01-07T18:16:07.201Z,100468.50
2023-01-07T18:18:33.673Z,100463.22
2023-01-07T18:21:00.112Z,100464.16
2023-01-07T18:23:26.602Z,100458.88
2023-01-07T18:25:53.034Z,100458.78
2023-01-07T18:28:20.434Z,100459.63
2023-01-07T18:30:47.867Z,100451.72
2023-01-07T18:33:14.499Z,100454.25
2023-01-07T18:35:40.893Z,100454.25
2023-01-07T18:38:15.044Z,100447.16
2023-01-07T18:40:42.012Z,100446.34
2023-01-07T18:43:12.513Z,100441.00
2023-01-07T18:45:43.258Z,100441.69
2023-01-07T18:48:12.282Z,100446.78
2023-01-07T18:50:45.951Z,100440.63
2023-01-07T18:53:12.666Z,100440.50
2023-01-07T18:55:40.746Z,100443.91
2023-01-07T18:58:08.133Z,100442.09
2023-01-07T19:00:34.773Z,100437.69
2023-01-07T19:03:01.239Z,100441.94
2023-01-07T19:05:28.063Z,100441.94
2023-01-07T19:07:55.355Z,100433.25
2023-01-07T19:10:25.892Z,100440.06
2023-01-07T19:12:52.589Z,100433.94
2023-01-07T19:15:19.106Z,100425.19
2023-01-07T19:17:46.806Z,100437.25
2023-01-07T19:20:15.232Z,100425.97
2023-01-07T19:22:41.693Z,100422.41
2023-01-07T19:25:08.969Z,100422.28
2023-01-07T19:27:35.511Z,100421.34
2023-01-07T19:30:01.951Z,100410.91
2023-01-07T19:32:31.470Z,100409.94
2023-01-07T19:34:57.883Z,100404.72
2023-01-07T19:37:24.381Z,100410.66
2023-01-07T19:39:51.777Z,100399.31
2023-01-07T19:42:18.233Z,100397.38
2023-01-07T19:44:44.643Z,100389.50
2023-01-07T19:47:11.086Z,100387.69
2023-01-07T19:49:37.519Z,100388.47
2023-01-07T19:52:04.018Z,100380.56
2023-01-07T19:54:30.448Z,100389.97
2023-01-07T19:56:57.833Z,100390.81
2023-01-07T19:59:25.116Z,100395.00
2023-01-07T20:01:53.572Z,100394.84
2023-01-07T20:04:20.250Z,100380.09
2023-01-07T20:06:47.363Z,100366.25
2023-01-07T20:09:13.789Z,100372.13
2023-01-07T20:11:42.447Z,100363.44
2023-01-07T20:14:08.963Z,100358.16
2023-01-07T20:16:38.830Z,100359.03
2023-01-07T20:19:05.947Z,100352.03
2023-01-07T20:21:33.044Z,100340.00
2023-01-07T20:23:59.553Z,100346.06
2023-01-07T20:26:29.179Z,100341.63
2023-01-07T20:28:57.700Z,100350.22
2023-01-07T20:31:25.540Z,100344.97
2023-01-07T20:33:52.180Z,100332.88
2023-01-07T20:36:20.622Z,100339.69
2023-01-07T20:38:47.403Z,100329.28
2023-01-07T20:41:16.006Z,100328.41
2023-01-07T20:43:43.540Z,100323.25
2023-01-07T20:46:10.604Z,100331.84
2023-01-07T20:48:37.757Z,100324.91
2023-01-07T20:51:06.817Z,100335.34
2023-01-07T20:53:33.241Z,100330.13
2023-01-07T20:56:00.463Z,100328.41
2023-01-07T20:58:30.914Z,100324.91
2023-01-07T21:00:57.723Z,100329.19
2023-01-07T21:03:25.568Z,100321.47
2023-01-07T21:05:55.757Z,100319.72
2023-01-07T21:08:22.194Z,100316.22
2023-01-07T21:10:49.633Z,100310.91
2023-01-07T21:13:17.059Z,100306.50
2023-01-07T21:15:44.467Z,100313.31
2023-01-07T21:18:11.880Z,100291.66
2023-01-07T21:20:40.035Z,100292.41
2023-01-07T21:23:06.827Z,100290.63
2023-01-07T21:25:33.476Z,100286.34
2023-01-07T21:27:59.893Z,100285.41
2023-01-07T21:30:28.218Z,100281.94
2023-01-07T21:32:55.939Z,100278.41
2023-01-07T21:35:22.749Z,100275.88
2023-01-07T21:37:52.901Z,100278.47
2023-01-07T21:40:20.615Z,100275.00
2023-01-07T21:42:50.037Z,100277.53
2023-01-07T21:45:17.329Z,100279.19
2023-01-07T21:47:43.815Z,100271.44
2023-01-07T21:50:10.283Z,100266.16
2023-01-07T21:52:36.958Z,100269.56
2023-01-07T21:55:04.234Z,100264.25
2023-01-07T21:57:31.174Z,100265.09
2023-01-07T21:59:57.603Z,100261.66
2023-01-07T22:02:23.991Z,100261.66
2023-01-07T22:04:50.616Z,100252.09
2023-01-07T22:07:18.373Z,100263.31
2023-01-07T22:09:45.235Z,100272.72
2023-01-07T22:12:12.055Z,100272.63
2023-01-07T22:14:38.973Z,100275.19
2023-01-07T22:17:07.273Z,100275.09
2023-01-07T22:19:33.822Z,100281.09
2023-01-07T22:22:01.248Z,100273.28
2023-01-07T22:24:27.733Z,100269.78
2023-01-07T22:26:55.116Z,100277.53
2023-01-07T22:29:21.635Z,100274.94
2023-01-07T22:31:48.202Z,100278.44
2023-01-07T22:34:14.692Z,100280.22
2023-01-07T22:37:10.805Z,100270.59
2023-01-07T22:39:38.373Z,100259.44
2023-01-07T22:42:09.502Z,100258.56
2023-01-07T22:44:40.368Z,100264.50
2023-01-07T22:47:08.837Z,100270.50
2023-01-07T22:49:35.390Z,100252.28
2023-01-07T22:52:02.282Z,100248.00
2023-01-07T22:54:28.924Z,100254.94
2023-01-07T22:56:55.352Z,100236.75
2023-01-07T22:59:21.771Z,100233.31
2023-01-07T23:01:48.234Z,100233.28
2023-01-07T23:04:15.715Z,100223.72
2023-01-07T23:06:42.159Z,100218.53
2023-01-07T23:09:08.615Z,100215.91
2023-01-07T23:11:56.889Z,100215.81
2023-01-07T23:14:24.001Z,100221.75
2023-01-07T23:16:51.130Z,100205.44
2023-01-07T23:19:18.874Z,100214.81
2023-01-07T23:21:47.118Z,100207.06
2023-01-07T23:24:14.093Z,100204.50
2023-01-07T23:26:41.169Z,100199.31
2023-01-07T23:29:07.810Z,100191.56
2023-01-07T23:31:35.165Z,100184.66
2023-01-07T23:34:01.885Z,100174.22
2023-01-07T23:36:28.607Z,100185.44
2023-01-07T23:38:55.212Z,100186.13
2023-01-07T23:41:21.657Z,100186.06
2023-01-07T23:43:49.415Z,100194.63
2023-01-07T23:46:15.988Z,100197.16
2023-01-07T23:48:42.640Z,100203.16
2023-01-07T23:51:17.011Z,100194.47
2023-01-07T23:53:44.179Z,100189.25
2023-01-07T23:56:10.907Z,100187.47
2023-01-07T23:58:37.878Z,100177.88
